Time;durP1;ratioP1;P1;durP2;ratioP2;P2;SDS_P1;SDS_P2;PMS_P1;PMS_P2;Temp;Humidity;BMP_temperature;BMP_pressure;BME280_temperature;BME280_humidity;BME280_pressure;Samples;Min_cycle;Max_cycle;Signal;HPM_P1;HPM_P2
2021/09/10 00:00:46;;;;;;;10.15;7.28;;;;;;;18.10;100.00;100056.97;5055657;28;20393;-84
2021/09/10 00:03:11;;;;;;;11.55;6.88;;;;;;;18.15;100.00;100061.03;5038266;28;20021;-84
2021/09/10 00:05:37;;;;;;;12.17;6.67;;;;;;;18.11;100.00;100059.53;5056803;28;20475;-84
2021/09/10 00:08:02;;;;;;;10.18;6.45;;;;;;;18.10;100.00;100063.09;5057364;28;20317;-84
2021/09/10 00:10:28;;;;;;;8.90;6.10;;;;;;;18.10;100.00;100055.22;5039198;28;20032;-85
2021/09/10 00:12:54;;;;;;;9.35;6.40;;;;;;;18.21;100.00;100059.84;5057204;28;20132;-84
2021/09/10 00:15:19;;;;;;;10.50;6.55;;;;;;;18.32;100.00;100060.06;5057143;28;20419;-84
2021/09/10 00:17:44;;;;;;;11.55;7.40;;;;;;;18.34;100.00;100060.81;5039665;28;20028;-84
2021/09/10 00:20:10;;;;;;;10.63;6.70;;;;;;;18.32;100.00;100067.13;5058252;28;20028;-84
2021/09/10 00:22:35;;;;;;;11.27;6.03;;;;;;;18.48;100.00;100070.53;5038911;28;20036;-84
2021/09/10 00:25:00;;;;;;;12.73;6.30;;;;;;;18.69;100.00;100063.16;5037489;28;20024;-84
2021/09/10 00:27:26;;;;;;;11.07;5.75;;;;;;;19.02;100.00;100062.06;5038174;28;20029;-84
2021/09/10 00:29:51;;;;;;;10.32;5.60;;;;;;;19.43;100.00;100061.31;5057542;28;20093;-84
2021/09/10 00:32:16;;;;;;;11.32;6.15;;;;;;;19.51;100.00;100070.38;5038999;28;20017;-84
2021/09/10 00:34:41;;;;;;;10.07;5.57;;;;;;;19.64;100.00;100061.69;5039415;28;20393;-84
2021/09/10 00:37:07;;;;;;;12.27;5.63;;;;;;;19.75;100.00;100054.00;5038666;28;20116;-84
2021/09/10 00:39:32;;;;;;;10.45;6.00;;;;;;;19.69;100.00;100051.78;5056394;28;20029;-84
2021/09/10 00:41:57;;;;;;;8.75;5.63;;;;;;;19.69;100.00;100049.97;5056786;28;20074;-84
2021/09/10 00:44:23;;;;;;;11.02;6.03;;;;;;;19.66;100.00;100058.06;5038179;28;20108;-84
2021/09/10 00:46:49;;;;;;;10.80;5.70;;;;;;;19.52;100.00;100055.47;5055163;28;20039;-84
2021/09/10 00:49:14;;;;;;;9.68;6.30;;;;;;;19.54;100.00;100054.41;5036829;28;20017;-84
2021/09/10 00:51:40;;;;;;;9.07;6.32;;;;;;;19.43;100.00;100045.53;5036998;28;20028;-84
2021/09/10 00:54:06;;;;;;;14.57;5.97;;;;;;;19.47;100.00;100050.47;5036759;28;20047;-84
2021/09/10 00:56:32;;;;;;;11.07;6.40;;;;;;;19.46;100.00;100050.59;5036469;28;20104;-84
2021/09/10 00:59:00;;;;;;;9.95;6.50;;;;;;;19.53;100.00;100050.09;5037126;28;20021;-84
2021/09/10 01:01:26;;;;;;;9.40;6.63;;;;;;;19.47;100.00;100053.09;5055437;28;20048;-84
2021/09/10 01:03:51;;;;;;;12.07;6.53;;;;;;;19.41;100.00;100053.50;5036238;28;20477;-84
2021/09/10 01:06:18;;;;;;;10.13;6.03;;;;;;;19.32;100.00;100064.59;5037566;28;20465;-84
2021/09/10 01:08:44;;;;;;;12.80;8.07;;;;;;;19.33;100.00;100050.50;5055389;28;20150;-84
2021/09/10 01:11:09;;;;;;;12.68;7.90;;;;;;;19.31;100.00;100055.03;5037489;28;20112;-85
2021/09/10 01:13:36;;;;;;;15.18;9.27;;;;;;;19.30;100.00;100048.06;5055676;28;20127;-85
2021/09/10 01:16:02;;;;;;;14.05;8.85;;;;;;;19.46;100.00;100051.44;5037902;28;20025;-85
2021/09/10 01:18:27;;;;;;;17.92;9.00;;;;;;;19.37;100.00;100053.78;5036204;28;20481;-84
2021/09/10 01:20:52;;;;;;;26.00;10.23;;;;;;;19.31;100.00;100052.41;5036449;28;20027;-84
2021/09/10 01:23:18;;;;;;;11.77;8.70;;;;;;;19.26;100.00;100057.09;5037577;28;20444;-84
2021/09/10 01:25:43;;;;;;;16.52;10.15;;;;;;;19.26;100.00;100054.44;5036667;28;20017;-84
2021/09/10 01:28:09;;;;;;;14.50;9.68;;;;;;;19.24;100.00;100046.69;5036584;28;20071;-84
2021/09/10 01:30:36;;;;;;;15.38;9.25;;;;;;;19.19;100.00;100054.00;5037512;28;20028;-84
2021/09/10 01:33:05;;;;;;;17.35;11.07;;;;;;;19.22;100.00;100052.97;5036235;28;20049;-84
2021/09/10 01:35:30;;;;;;;15.55;10.70;;;;;;;19.09;100.00;100048.47;5035348;28;20040;-85
2021/09/10 01:37:56;;;;;;;13.18;9.80;;;;;;;19.01;100.00;100061.22;5036589;28;20033;-85
2021/09/10 01:40:22;;;;;;;15.20;11.45;;;;;;;19.08;100.00;100064.31;5037465;28;20484;-85
2021/09/10 01:42:47;;;;;;;14.82;10.90;;;;;;;19.00;100.00;100064.81;5058910;28;20114;-85
2021/09/10 01:45:14;;;;;;;18.30;11.35;;;;;;;18.90;100.00;100063.66;5041064;28;20021;-84
2021/09/10 01:47:40;;;;;;;15.18;11.23;;;;;;;18.94;100.00;100069.59;5039807;28;20115;-84
2021/09/10 01:50:12;;;;;;;18.02;11.45;;;;;;;18.94;100.00;100064.34;5040268;28;20068;-84
2021/09/10 01:52:38;;;;;;;16.52;11.75;;;;;;;18.94;100.00;100059.91;5058150;28;20032;-84
2021/09/10 01:55:05;;;;;;;18.50;12.20;;;;;;;18.93;100.00;100070.50;5040073;28;20021;-84
2021/09/10 01:57:31;;;;;;;19.23;12.52;;;;;;;18.91;100.00;100067.16;5040144;28;20493;-84
2021/09/10 01:59:56;;;;;;;18.92;12.63;;;;;;;18.92;100.00;100076.72;5039534;28;20116;-84
2021/09/10 02:02:22;;;;;;;20.45;12.85;;;;;;;18.96;100.00;100076.41;5039653;28;20124;-84
2021/09/10 02:04:47;;;;;;;17.50;11.82;;;;;;;18.97;100.00;100082.56;5057716;28;20057;-84
2021/09/10 02:07:12;;;;;;;22.92;14.45;;;;;;;19.04;100.00;100082.06;5058423;28;20036;-84
2021/09/10 02:09:38;;;;;;;16.60;13.30;;;;;;;19.16;100.00;100085.72;5040316;28;20071;-84
2021/09/10 02:12:03;;;;;;;18.77;14.55;;;;;;;19.32;100.00;100093.50;5058299;28;20024;-84
2021/09/10 02:14:30;;;;;;;19.15;13.80;;;;;;;19.33;100.00;100092.56;5039665;28;20588;-84
2021/09/10 02:16:56;;;;;;;18.25;12.85;;;;;;;19.38;100.00;100095.75;5057712;28;20389;-84
2021/09/10 02:19:22;;;;;;;21.83;14.43;;;;;;;19.36;100.00;100095.00;5058250;28;20031;-84
2021/09/10 02:21:47;;;;;;;17.45;13.05;;;;;;;19.34;100.00;100103.97;5040024;28;20435;-84
2021/09/10 02:24:12;;;;;;;22.38;15.40;;;;;;;19.34;100.00;100099.53;5040088;28;20447;-84
2021/09/10 02:26:38;;;;;;;22.98;16.02;;;;;;;19.35;100.00;100100.38;5041477;28;20031;-84
2021/09/10 02:29:03;;;;;;;21.40;14.23;;;;;;;19.33;100.00;100103.09;5039817;28;20056;-84
2021/09/10 02:31:29;;;;;;;21.80;15.00;;;;;;;19.32;100.00;100102.25;5057759;28;20047;-84
2021/09/10 02:33:54;;;;;;;19.38;14.68;;;;;;;19.30;100.00;100103.28;5056802;28;20082;-84
2021/09/10 02:36:19;;;;;;;20.70;14.35;;;;;;;19.31;100.00;100108.47;5040354;28;20488;-84
2021/09/10 02:38:45;;;;;;;22.48;14.65;;;;;;;19.28;100.00;100099.91;5040354;28;20533;-84
2021/09/10 02:41:11;;;;;;;19.45;13.70;;;;;;;19.22;100.00;100105.56;5057734;28;20029;-84
2021/09/10 02:43:36;;;;;;;19.00;13.90;;;;;;;19.20;100.00;100103.00;5039612;28;20439;-84
2021/09/10 02:46:01;;;;;;;23.75;13.63;;;;;;;19.15;100.00;100102.47;5038668;28;20024;-84
2021/09/10 02:48:27;;;;;;;20.23;13.85;;;;;;;19.15;100.00;100110.34;5038832;28;20049;-84
2021/09/10 02:50:52;;;;;;;19.55;12.70;;;;;;;19.14;100.00;100102.53;5038478;28;20029;-84
2021/09/10 02:53:17;;;;;;;18.25;12.50;;;;;;;19.09;100.00;100106.31;5037449;28;20037;-84
2021/09/10 02:55:42;;;;;;;17.33;13.73;;;;;;;19.08;100.00;100109.00;5038623;28;20032;-84
2021/09/10 02:58:08;;;;;;;18.63;13.35;;;;;;;19.07;100.00;100100.28;5056803;28;20029;-84
2021/09/10 03:00:33;;;;;;;19.65;14.15;;;;;;;19.08;100.00;100104.59;5056921;28;20095;-85
2021/09/10 03:02:58;;;;;;;24.27;14.52;;;;;;;19.08;100.00;100111.63;5039216;28;20063;-85
2021/09/10 03:05:23;;;;;;;17.83;13.68;;;;;;;19.10;100.00;100107.13;5038622;28;20024;-85
2021/09/10 03:07:49;;;;;;;27.40;16.17;;;;;;;19.09;100.00;100114.19;5057273;28;20021;-85
2021/09/10 03:10:14;;;;;;;23.33;15.98;;;;;;;19.07;100.00;100109.97;5056641;28;20025;-85
2021/09/10 03:12:40;;;;;;;22.40;16.75;;;;;;;19.07;100.00;100113.41;5038221;28;20055;-85
2021/09/10 03:15:09;;;;;;;19.85;15.55;;;;;;;19.06;100.00;100108.28;5038615;28;20029;-85
2021/09/10 03:17:34;;;;;;;23.67;17.17;;;;;;;19.02;100.00;100110.22;5056119;28;20051;-85
2021/09/10 03:19:59;;;;;;;20.70;18.13;;;;;;;18.98;100.00;100102.63;5039626;28;20417;-84
2021/09/10 03:22:25;;;;;;;21.83;16.70;;;;;;;18.98;100.00;100105.25;5039365;28;20057;-84
2021/09/10 03:24:50;;;;;;;21.13;16.73;;;;;;;18.96;100.00;100099.22;5038300;28;20021;-84
2021/09/10 03:27:16;;;;;;;22.05;17.05;;;;;;;18.93;100.00;100100.25;5056733;28;20029;-84
2021/09/10 03:29:41;;;;;;;22.35;16.45;;;;;;;18.86;100.00;100096.31;5039543;28;20013;-84
2021/09/10 03:32:06;;;;;;;25.48;17.52;;;;;;;18.83;100.00;100104.38;5039611;28;20085;-84
2021/09/10 03:34:32;;;;;;;26.27;18.25;;;;;;;18.75;100.00;100094.34;5057713;28;20051;-84
2021/09/10 03:36:58;;;;;;;24.45;18.17;;;;;;;18.71;100.00;100097.19;5039687;28;20021;-84
2021/09/10 03:39:23;;;;;;;28.45;18.17;;;;;;;18.71;100.00;100092.78;5057227;28;20033;-84
2021/09/10 03:41:49;;;;;;;25.10;18.08;;;;;;;18.63;100.00;100093.25;5039497;28;20542;-84
2021/09/10 03:44:14;;;;;;;24.63;18.55;;;;;;;18.59;100.00;100091.72;5039058;28;20032;-84
2021/09/10 03:46:39;;;;;;;26.57;18.40;;;;;;;18.53;100.00;100093.88;5056625;28;20103;-84
2021/09/10 03:49:05;;;;;;;25.33;18.05;;;;;;;18.54;100.00;100090.34;5057828;28;20256;-84
2021/09/10 03:51:30;;;;;;;24.90;18.33;;;;;;;18.43;100.00;100090.94;5039405;28;20082;-84
2021/09/10 03:53:55;;;;;;;22.93;18.40;;;;;;;18.46;100.00;100088.13;5056136;28;20032;-84
2021/09/10 03:56:21;;;;;;;24.33;18.45;;;;;;;18.44;100.00;100089.16;5038154;28;20334;-84
2021/09/10 03:58:46;;;;;;;24.25;18.55;;;;;;;18.49;100.00;100087.97;5056117;28;20079;-82
2021/09/10 04:01:12;;;;;;;27.20;18.38;;;;;;;18.40;100.00;100086.72;5067325;28;20020;-81
2021/09/10 04:03:37;;;;;;;25.35;19.63;;;;;;;18.44;100.00;100087.38;5052500;28;20024;-82
2021/09/10 04:06:02;;;;;;;24.38;19.15;;;;;;;18.36;100.00;100074.72;5053999;28;20029;-81
2021/09/10 04:08:28;;;;;;;24.10;18.42;;;;;;;18.44;100.00;100076.88;5070431;28;20025;-82
2021/09/10 04:10:53;;;;;;;24.10;17.53;;;;;;;18.45;100.00;100075.94;5053469;28;20029;-82
2021/09/10 04:13:18;;;;;;;25.38;18.15;;;;;;;18.42;100.00;100084.00;5053577;28;20267;-82
2021/09/10 04:15:43;;;;;;;26.58;17.92;;;;;;;18.40;100.00;100088.50;5053845;28;20025;-81
2021/09/10 04:18:09;;;;;;;22.95;16.27;;;;;;;18.44;100.00;100082.13;5070014;28;20036;-81
2021/09/10 04:20:34;;;;;;;24.13;16.98;;;;;;;18.43;100.00;100082.22;5052704;28;20028;-81
2021/09/10 04:23:00;;;;;;;22.17;16.88;;;;;;;18.33;100.00;100085.38;5064506;28;20036;-81
2021/09/10 04:25:25;;;;;;;23.98;18.70;;;;;;;18.37;100.00;100084.25;5042063;28;20512;-81
2021/09/10 04:27:50;;;;;;;24.25;16.92;;;;;;;18.39;100.00;100087.66;5041277;28;20056;-82
2021/09/10 04:30:16;;;;;;;22.42;17.63;;;;;;;18.38;100.00;100085.09;5040389;28;20451;-82
2021/09/10 04:32:41;;;;;;;23.58;17.52;;;;;;;18.35;100.00;100087.91;5040464;28;20029;-82
2021/09/10 04:35:08;;;;;;;22.60;18.05;;;;;;;18.34;100.00;100094.09;5042151;28;20039;-82
2021/09/10 04:37:34;;;;;;;27.90;19.80;;;;;;;18.30;100.00;100092.59;5042523;28;20028;-81
2021/09/10 04:40:00;;;;;;;24.55;18.60;;;;;;;18.24;100.00;100099.03;5060161;28;20095;-82
2021/09/10 04:42:26;;;;;;;30.75;22.02;;;;;;;18.12;100.00;100100.59;5039454;28;20029;-82
2021/09/10 04:44:52;;;;;;;29.88;22.27;;;;;;;18.05;100.00;100103.66;5037630;28;20071;-82
2021/09/10 04:47:17;;;;;;;30.35;21.75;;;;;;;18.01;100.00;100104.75;5036048;28;20397;-83
2021/09/10 04:49:42;;;;;;;29.20;23.40;;;;;;;17.85;100.00;100110.00;5036644;28;20021;-83
2021/09/10 04:52:08;;;;;;;29.95;22.45;;;;;;;17.82;100.00;100107.56;5035937;28;20029;-83
2021/09/10 04:54:33;;;;;;;27.15;21.23;;;;;;;17.86;100.00;100107.31;5036015;28;20020;-83
2021/09/10 04:56:59;;;;;;;31.90;22.75;;;;;;;17.75;100.00;100108.81;5038414;28;20025;-82
2021/09/10 04:59:24;;;;;;;31.58;22.80;;;;;;;17.80;100.00;100118.16;5037619;28;20028;-82
2021/09/10 05:01:49;;;;;;;31.50;22.67;;;;;;;17.77;100.00;100112.19;5055320;28;20025;-82
2021/09/10 05:04:15;;;;;;;31.08;23.02;;;;;;;17.60;100.00;100113.09;5039096;28;20039;-82
2021/09/10 05:06:40;;;;;;;32.33;24.20;;;;;;;17.63;100.00;100126.88;5036332;28;20490;-82
2021/09/10 05:09:05;;;;;;;39.38;24.23;;;;;;;17.55;100.00;100133.47;5053552;28;20025;-82
2021/09/10 05:11:31;;;;;;;34.00;25.20;;;;;;;17.56;100.00;100146.53;5053798;28;20504;-83
2021/09/10 05:13:56;;;;;;;33.85;24.85;;;;;;;17.57;100.00;100149.97;5035597;28;20473;-83
2021/09/10 05:16:22;;;;;;;30.77;23.30;;;;;;;17.67;100.00;100149.44;5035160;28;20025;-83
2021/09/10 05:18:47;;;;;;;36.28;25.33;;;;;;;17.65;100.00;100146.03;5036319;28;20032;-83
2021/09/10 05:21:12;;;;;;;33.78;24.55;;;;;;;17.53;100.00;100145.84;5054351;28;20134;-84
2021/09/10 05:23:37;;;;;;;30.27;23.63;;;;;;;17.63;100.00;100147.88;5035798;28;20020;-83
2021/09/10 05:26:03;;;;;;;34.37;24.90;;;;;;;17.68;100.00;100151.09;5035311;28;20017;-84
2021/09/10 05:28:28;;;;;;;32.10;24.27;;;;;;;17.62;100.00;100150.59;5035512;28;20325;-84
2021/09/10 05:30:53;;;;;;;36.87;27.07;;;;;;;17.53;100.00;100157.19;5035296;28;20396;-85
2021/09/10 05:33:18;;;;;;;39.47;28.00;;;;;;;17.65;100.00;100135.53;5035513;28;20264;-85
2021/09/10 05:35:44;;;;;;;35.92;26.42;;;;;;;17.68;100.00;100145.84;5035621;28;20128;-84
2021/09/10 05:38:09;;;;;;;38.60;28.55;;;;;;;17.59;100.00;100145.50;5035385;28;20025;-84
2021/09/10 05:40:34;;;;;;;40.38;29.05;;;;;;;17.65;100.00;100142.56;5035140;28;20020;-83
2021/09/10 05:43:00;;;;;;;38.67;28.33;;;;;;;17.59;100.00;100135.88;5035299;28;20033;-83
2021/09/10 05:45:25;;;;;;;42.92;27.52;;;;;;;17.64;100.00;100144.34;5035129;28;20076;-84
2021/09/10 05:47:51;;;;;;;39.63;27.38;;;;;;;17.64;100.00;100146.97;5035309;28;20023;-84
2021/09/10 05:50:16;;;;;;;37.95;29.42;;;;;;;17.66;100.00;100168.69;5053009;28;20060;-85
2021/09/10 05:52:41;;;;;;;39.95;29.77;;;;;;;17.65;100.00;100171.41;5053076;28;20025;-85
2021/09/10 05:55:07;;;;;;;36.78;27.63;;;;;;;17.63;100.00;100195.09;5034995;28;20420;-85
2021/09/10 05:57:32;;;;;;;37.17;28.55;;;;;;;17.59;100.00;100213.69;5034940;28;20056;-85
2021/09/10 05:59:58;;;;;;;37.20;26.92;;;;;;;17.47;100.00;100213.41;5035171;28;20115;-85
2021/09/10 06:02:23;;;;;;;37.45;28.55;;;;;;;17.49;100.00;100216.81;5035184;28;20021;-85
2021/09/10 06:04:48;;;;;;;35.75;26.48;;;;;;;17.53;100.00;100219.28;5034994;28;20082;-85
2021/09/10 06:07:15;;;;;;;37.33;28.55;;;;;;;17.51;100.00;100219.34;5035003;28;20499;-85
2021/09/10 06:09:40;;;;;;;39.92;29.27;;;;;;;17.55;100.00;100220.88;5034991;28;20017;-85
2021/09/10 06:12:06;;;;;;;39.30;29.65;;;;;;;17.51;100.00;100216.72;5034893;28;20064;-85
2021/09/10 06:14:31;;;;;;;45.17;30.40;;;;;;;17.47;100.00;100212.56;5035171;28;20507;-85
2021/09/10 06:16:57;;;;;;;40.10;30.67;;;;;;;17.48;100.00;100212.47;5034894;28;20021;-85
2021/09/10 06:19:22;;;;;;;39.47;29.98;;;;;;;17.48;100.00;100201.97;5052727;28;20028;-84
2021/09/10 06:21:48;;;;;;;50.83;29.50;;;;;;;17.53;100.00;100211.41;5035476;28;20025;-84
2021/09/10 06:24:13;;;;;;;37.67;28.83;;;;;;;17.54;100.00;100207.84;5034795;28;20121;-87
2021/09/10 06:26:38;;;;;;;37.92;28.02;;;;;;;17.56;100.00;100201.59;5053423;28;20025;-87
2021/09/10 06:29:04;;;;;;;34.33;26.25;;;;;;;17.57;100.00;100205.06;5038634;28;20504;-87
2021/09/10 06:31:29;;;;;;;34.63;26.02;;;;;;;17.59;100.00;100203.22;5038760;28;20139;-86
2021/09/10 06:33:54;;;;;;;37.08;26.73;;;;;;;17.51;100.00;100208.84;5056039;28;20027;-86
2021/09/10 06:36:19;;;;;;;34.35;25.38;;;;;;;17.55;100.00;100218.25;5056332;28;20025;-86
2021/09/10 06:38:45;;;;;;;32.95;23.85;;;;;;;17.52;100.00;100221.06;5056154;28;20580;-86
2021/09/10 06:41:10;;;;;;;32.53;23.67;;;;;;;17.47;100.00;100228.28;5038403;28;20036;-86
2021/09/10 06:43:35;;;;;;;34.88;23.80;;;;;;;17.42;100.00;100232.91;5039121;28;20063;-86
2021/09/10 06:46:00;;;;;;;29.20;21.98;;;;;;;17.41;100.00;100231.25;5038209;28;20076;-86
2021/09/10 06:48:26;;;;;;;34.65;22.63;;;;;;;17.41;100.00;100218.13;5038379;28;20033;-86
2021/09/10 06:50:51;;;;;;;30.98;22.92;;;;;;;17.42;100.00;100209.31;5056456;28;20025;-85
2021/09/10 06:53:16;;;;;;;29.83;22.80;;;;;;;17.50;100.00;100196.66;5056607;28;20103;-85
2021/09/10 06:55:41;;;;;;;30.90;21.98;;;;;;;17.59;100.00;100203.22;5038857;28;20025;-86
2021/09/10 06:58:07;;;;;;;27.00;21.35;;;;;;;17.53;100.00;100208.78;5039357;28;20044;-86
2021/09/10 07:00:32;;;;;;;30.08;22.73;;;;;;;17.46;100.00;100219.59;5039017;28;20495;-86
2021/09/10 07:02:57;;;;;;;28.55;22.42;;;;;;;17.47;100.00;100225.69;5038596;28;20055;-86
2021/09/10 07:05:23;;;;;;;30.30;22.83;;;;;;;17.48;100.00;100232.59;5039200;28;20454;-86
2021/09/10 07:07:48;;;;;;;31.08;21.92;;;;;;;17.54;100.00;100241.94;5038873;28;20029;-85
2021/09/10 07:10:14;;;;;;;31.23;22.02;;;;;;;17.59;100.00;100246.00;5039455;28;20028;-85
2021/09/10 07:12:39;;;;;;;29.08;22.02;;;;;;;17.61;100.00;100248.53;5057929;28;20462;-85
2021/09/10 07:15:05;;;;;;;31.80;22.35;;;;;;;17.58;100.00;100256.56;5039003;28;20028;-85
2021/09/10 07:17:32;;;;;;;30.00;21.35;;;;;;;17.54;100.00;100262.91;5056153;28;20024;-85
2021/09/10 07:19:57;;;;;;;32.55;21.40;;;;;;;17.56;100.00;100264.53;5055805;28;20049;-85
2021/09/10 07:22:23;;;;;;;30.80;21.95;;;;;;;17.52;100.00;100265.63;5038040;28;20492;-85
2021/09/10 07:24:48;;;;;;;31.45;23.10;;;;;;;17.45;100.00;100274.72;5037956;28;20115;-85
2021/09/10 07:27:13;;;;;;;30.80;21.48;;;;;;;17.44;100.00;100283.53;5038061;28;20058;-86
2021/09/10 07:29:39;;;;;;;30.73;21.02;;;;;;;17.41;100.00;100294.16;5055462;28;20531;-86
2021/09/10 07:32:04;;;;;;;23.48;17.45;;;;;;;17.46;100.00;100307.91;5037748;28;20083;-86
2021/09/10 07:34:29;;;;;;;22.67;16.65;;;;;;;17.48;100.00;100317.34;5054982;28;20052;-86
2021/09/10 07:36:58;;;;;;;22.63;17.27;;;;;;;17.53;100.00;100316.28;5037357;28;20162;-86
2021/09/10 07:39:23;;;;;;;22.92;16.27;;;;;;;17.56;100.00;100322.22;5036338;28;20025;-86
2021/09/10 07:41:49;;;;;;;23.48;17.05;;;;;;;17.48;100.00;100322.59;5037088;28;20477;-86
2021/09/10 07:44:16;;;;;;;22.48;15.90;;;;;;;17.52;100.00;100330.31;5054996;28;20029;-86
2021/09/10 07:46:42;;;;;;;20.67;16.13;;;;;;;17.54;100.00;100328.47;5037241;28;20437;-86
2021/09/10 07:49:08;;;;;;;22.23;16.30;;;;;;;17.56;100.00;100330.09;5037915;28;20017;-86
2021/09/10 07:51:35;;;;;;;22.65;16.95;;;;;;;17.54;100.00;100321.44;5037068;28;20397;-86
2021/09/10 07:54:04;;;;;;;22.42;16.20;;;;;;;17.51;100.00;100326.00;5037038;28;20392;-86
2021/09/10 07:56:29;;;;;;;24.10;17.20;;;;;;;17.42;100.00;100314.19;5037145;28;20079;-86
2021/09/10 07:58:55;;;;;;;24.63;16.95;;;;;;;17.42;100.00;100314.19;5036959;28;20032;-86
2021/09/10 08:01:20;;;;;;;24.05;16.88;;;;;;;17.36;100.00;100312.72;5036928;28;20021;-86
2021/09/10 08:03:45;;;;;;;21.98;16.80;;;;;;;17.47;100.00;100314.81;5036808;28;20036;-86
2021/09/10 08:06:11;;;;;;;22.55;16.45;;;;;;;17.41;100.00;100320.38;5036722;28;20047;-86
2021/09/10 08:08:36;;;;;;;22.67;15.25;;;;;;;17.44;100.00;100317.59;5037857;28;20028;-85
2021/09/10 08:11:01;;;;;;;21.42;14.45;;;;;;;17.48;100.00;100327.00;5036876;28;20024;-86
2021/09/10 08:13:26;;;;;;;21.30;14.52;;;;;;;17.44;100.00;100334.19;5036597;28;20029;-86
2021/09/10 08:15:52;;;;;;;17.75;13.07;;;;;;;17.49;100.00;100334.81;5054587;28;20059;-86
2021/09/10 08:18:17;;;;;;;17.80;13.90;;;;;;;17.52;100.00;100338.19;5036513;28;20029;-87
2021/09/10 08:20:42;;;;;;;16.63;12.07;;;;;;;17.57;100.00;100346.66;5036594;28;20366;-86
2021/09/10 08:23:08;;;;;;;16.67;12.65;;;;;;;17.57;100.00;100358.00;5038165;28;20143;-86
2021/09/10 08:25:33;;;;;;;18.20;10.82;;;;;;;17.53;100.00;100368.75;5037995;28;20028;-86
2021/09/10 08:27:58;;;;;;;19.45;10.98;;;;;;;17.47;100.00;100380.38;5038249;28;20104;-86
2021/09/10 08:30:24;;;;;;;18.27;10.73;;;;;;;17.42;100.00;100385.00;5055528;28;20392;-86
2021/09/10 08:32:49;;;;;;;11.32;6.60;;;;;;;17.32;100.00;100381.13;5037625;28;20040;-86
2021/09/10 08:35:15;;;;;;;9.55;5.70;;;;;;;17.25;100.00;100359.63;5037173;28;20044;-86
2021/09/10 08:37:40;;;;;;;7.43;4.07;;;;;;;17.15;100.00;100363.59;5036018;28;20025;-87
2021/09/10 08:40:06;;;;;;;8.63;3.60;;;;;;;17.17;100.00;100370.47;5036203;28;20119;-87
2021/09/10 08:42:32;;;;;;;9.43;4.32;;;;;;;17.12;100.00;100358.50;5035886;28;20029;-87
2021/09/10 08:44:57;;;;;;;9.02;4.03;;;;;;;17.08;100.00;100343.84;5035844;28;20082;-87
2021/09/10 08:47:23;;;;;;;6.40;3.50;;;;;;;17.09;100.00;100351.66;5036328;28;20025;-87
2021/09/10 08:49:49;;;;;;;9.32;3.80;;;;;;;17.00;100.00;100352.94;5036083;28;20017;-87
2021/09/10 08:52:15;;;;;;;9.93;4.38;;;;;;;16.94;100.00;100349.78;5053804;28;20047;-87
2021/09/10 08:54:40;;;;;;;8.55;4.20;;;;;;;16.92;100.00;100349.84;5053974;28;20055;-87
2021/09/10 08:57:06;;;;;;;9.43;4.40;;;;;;;17.01;100.00;100348.56;5053684;28;20021;-87
2021/09/10 08:59:31;;;;;;;8.35;4.35;;;;;;;17.00;100.00;100349.50;5035670;28;20397;-87
2021/09/10 09:01:58;;;;;;;9.05;4.28;;;;;;;17.05;100.00;100351.88;5035824;28;20021;-87
2021/09/10 09:04:30;;;;;;;7.20;3.83;;;;;;;16.98;100.00;100344.31;5053529;28;20025;-87
2021/09/10 09:06:56;;;;;;;12.90;4.45;;;;;;;16.95;100.00;100341.00;5035734;28;20025;-87
2021/09/10 09:09:46;;;;;;;12.35;4.85;;;;;;;16.92;100.00;100347.22;5035605;28;20013;-87
2021/09/10 09:12:12;;;;;;;8.98;4.55;;;;;;;16.90;100.00;100346.47;5035702;28;20384;-87
2021/09/10 09:14:57;;;;;;;9.43;4.65;;;;;;;16.87;100.00;100340.50;5053405;28;20036;-87
2021/09/10 09:17:27;;;;;;;7.70;4.40;;;;;;;16.89;100.00;100343.91;5053605;28;20488;-87
2021/09/10 09:20:14;;;;;;;7.70;4.57;;;;;;;16.98;100.00;100344.31;5053322;28;20025;-87
2021/09/10 09:23:09;;;;;;;13.55;6.00;;;;;;;17.00;100.00;100346.88;5035542;28;20052;-87
2021/09/10 09:25:45;;;;;;;10.32;5.57;;;;;;;16.94;100.00;100332.28;5053373;28;20020;-87
2021/09/10 09:28:18;;;;;;;18.80;6.47;;;;;;;16.86;100.00;100333.56;5053708;28;20021;-88
2021/09/10 09:30:44;;;;;;;12.45;7.10;;;;;;;17.00;100.00;100328.53;5035537;28;20111;-88
2021/09/10 09:33:12;;;;;;;10.13;6.68;;;;;;;17.06;100.00;100325.59;5035539;28;20032;-88
2021/09/10 09:35:38;;;;;;;12.05;7.60;;;;;;;17.09;100.00;100330.69;5035214;28;20373;-88
2021/09/10 09:38:21;;;;;;;12.40;8.15;;;;;;;17.05;100.00;100329.13;5035461;28;20027;-88
2021/09/10 09:40:53;;;;;;;14.98;8.55;;;;;;;17.04;100.00;100327.44;5053379;28;20055;-88
2021/09/10 09:43:24;;;;;;;12.77;8.27;;;;;;;17.10;100.00;100329.75;5035485;28;20075;-88
2021/09/10 09:45:52;;;;;;;11.70;7.60;;;;;;;17.13;100.00;100324.38;5035176;28;20021;-88
2021/09/10 09:48:19;;;;;;;15.73;8.23;;;;;;;17.16;100.00;100321.59;5035749;28;20028;-88
2021/09/10 09:50:45;;;;;;;11.93;8.10;;;;;;;17.16;100.00;100321.59;5053988;28;20040;-88
2021/09/10 09:53:12;;;;;;;12.73;8.57;;;;;;;17.16;100.00;100315.50;5035278;28;20082;-88
2021/09/10 09:55:38;;;;;;;13.27;7.93;;;;;;;17.17;100.00;100306.72;5035200;28;20028;-88
2021/09/10 09:58:05;;;;;;;11.07;8.43;;;;;;;17.31;100.00;100313.91;5035135;28;20029;-87
2021/09/10 10:00:36;;;;;;;13.68;8.90;;;;;;;17.39;100.00;100315.19;5035245;28;20028;-87
2021/09/10 10:03:02;;;;;;;11.50;7.43;;;;;;;17.52;100.00;100318.06;5055976;28;20489;-87
2021/09/10 10:05:29;;;;;;;12.73;8.25;;;;;;;17.49;100.00;100324.31;5039012;28;20029;-87
2021/09/10 10:07:59;;;;;;;12.00;7.90;;;;;;;17.62;100.00;100323.69;5057135;28;20032;-86
2021/09/10 10:10:29;;;;;;;12.27;7.47;;;;;;;17.59;100.00;100315.97;5056883;28;20029;-88
2021/09/10 10:12:55;;;;;;;12.63;8.32;;;;;;;17.58;100.00;100323.00;5056719;28;20392;-88
2021/09/10 10:15:27;;;;;;;12.00;8.10;;;;;;;17.71;100.00;100326.69;5039178;28;20034;-87
2021/09/10 10:17:54;;;;;;;11.07;7.82;;;;;;;17.82;100.00;100327.94;5056760;28;20025;-87
2021/09/10 10:20:44;;;;;;;11.55;7.90;;;;;;;17.78;100.00;100334.28;5038737;28;20025;-87
2021/09/10 10:23:44;;;;;;;11.18;7.68;;;;;;;17.90;100.00;100342.34;5038849;28;20531;-84
2021/09/10 10:26:15;;;;;;;12.55;8.57;;;;;;;17.96;100.00;100342.97;5038870;28;20029;-88
2021/09/10 10:28:47;;;;;;;15.77;10.10;;;;;;;17.96;100.00;100335.94;5038773;28;20017;-87
2021/09/10 10:31:14;;;;;;;11.38;8.32;;;;;;;17.81;100.00;100340.22;5057013;28;20469;-89
2021/09/10 10:33:48;;;;;;;12.05;8.57;;;;;;;17.91;100.00;100333.53;5038527;28;20065;-87
2021/09/10 10:36:37;;;;;;;11.55;7.40;;;;;;;17.86;100.00;100332.94;5038726;28;20029;-87
2021/09/10 10:39:08;;;;;;;11.50;8.13;;;;;;;18.04;100.00;100331.16;5038438;28;20051;-87
2021/09/10 10:41:53;;;;;;;12.13;8.20;;;;;;;18.20;100.00;100332.97;5038470;28;20025;-88
2021/09/10 10:44:33;;;;;;;9.93;7.22;;;;;;;18.14;100.00;100327.09;5056300;28;20032;-88
2021/09/10 10:47:09;;;;;;;11.40;7.13;;;;;;;18.16;100.00;100325.25;5038327;28;20029;-88
2021/09/10 10:49:37;;;;;;;11.48;7.25;;;;;;;18.44;100.00;100325.50;5038520;28;20017;-89
2021/09/10 10:52:28;;;;;;;8.70;6.07;;;;;;;18.31;100.00;100333.22;5038349;28;20021;-88
2021/09/10 10:55:24;;;;;;;10.45;6.53;;;;;;;18.37;100.00;100331.09;5056075;28;20032;-88
2021/09/10 10:57:52;;;;;;;8.35;5.00;;;;;;;18.45;100.00;100329.84;5038610;28;20035;-89
2021/09/10 11:00:33;;;;;;;8.73;5.13;;;;;;;18.59;100.00;100330.75;5056595;28;20028;-88
2021/09/10 11:03:16;;;;;;;11.10;5.53;;;;;;;18.85;100.00;100328.53;5038074;28;20546;-88